createdAt,value
2022-10-14T00:00:24.607Z,12.64
2022-10-14T00:01:24.757Z,12.68
2022-10-14T00:02:24.586Z,12.64
2022-10-14T00:03:24.575Z,12.69
2022-10-14T00:04:24.571Z,12.71
2022-10-14T00:05:24.565Z,12.71
2022-10-14T00:06:24.587Z,12.65
2022-10-14T00:07:24.543Z,12.68
2022-10-14T00:08:24.541Z,12.75
2022-10-14T00:09:24.547Z,12.76
2022-10-14T00:10:24.520Z,12.79
2022-10-14T00:11:24.546Z,12.80
2022-10-14T00:12:24.501Z,12.78
2022-10-14T00:13:24.495Z,12.80
2022-10-14T00:14:24.488Z,12.80
2022-10-14T00:15:24.489Z,12.88
2022-10-14T00:16:24.499Z,12.87
2022-10-14T00:17:24.458Z,12.80
2022-10-14T00:18:24.454Z,12.83
2022-10-14T00:19:24.448Z,12.85
2022-10-14T00:20:24.439Z,12.90
2022-10-14T00:21:24.460Z,12.79
2022-10-14T00:22:24.417Z,12.82
2022-10-14T00:23:24.405Z,12.90
2022-10-14T00:24:24.394Z,12.85
2022-10-14T00:25:24.398Z,12.88
2022-10-14T00:26:24.415Z,12.82
2022-10-14T00:27:24.390Z,12.83
2022-10-14T00:28:24.412Z,12.90
2022-10-14T00:29:24.357Z,12.90
2022-10-14T00:30:24.344Z,12.83
2022-10-14T00:31:24.358Z,12.90
2022-10-14T00:32:24.364Z,13.00
2022-10-14T00:33:24.318Z,12.97
2022-10-14T00:34:24.316Z,12.87
2022-10-14T00:35:24.313Z,12.91
2022-10-14T00:36:24.338Z,12.91
2022-10-14T00:37:24.568Z,13.01
2022-10-14T00:38:24.293Z,12.98
2022-10-14T00:39:24.270Z,12.93
2022-10-14T00:40:24.270Z,13.01
2022-10-14T00:41:24.295Z,13.05
2022-10-14T00:42:24.259Z,12.98
2022-10-14T00:43:24.250Z,13.12
2022-10-14T00:44:24.230Z,13.11
2022-10-14T00:45:24.235Z,13.08
2022-10-14T00:46:24.271Z,13.15
2022-10-14T00:47:24.362Z,13.09
2022-10-14T00:48:24.216Z,13.12
2022-10-14T00:49:24.199Z,13.09
2022-10-14T00:50:24.197Z,13.05
2022-10-14T00:51:24.217Z,13.09
2022-10-14T00:52:24.169Z,13.06
2022-10-14T00:53:24.164Z,13.18
2022-10-14T00:54:24.192Z,13.05
2022-10-14T00:55:24.158Z,13.08
2022-10-14T00:56:24.133Z,13.03
2022-10-14T00:57:24.322Z,13.06
2022-10-14T00:58:24.118Z,13.13
2022-10-14T00:59:24.109Z,13.05
2022-10-14T01:00:24.127Z,13.11
2022-10-14T01:01:24.100Z,13.09
2022-10-14T01:02:24.205Z,13.08
2022-10-14T01:03:24.077Z,13.08
2022-10-14T01:04:24.073Z,13.00
2022-10-14T01:05:24.061Z,13.01
2022-10-14T01:06:24.051Z,13.01
2022-10-14T01:07:24.284Z,13.06
2022-10-14T01:08:24.043Z,13.06
2022-10-14T01:09:24.035Z,13.08
2022-10-14T01:10:24.020Z,13.05
2022-10-14T01:11:24.017Z,13.00
2022-10-14T01:12:29.053Z,13.15
2022-10-14T01:13:25.996Z,13.06
2022-10-14T01:14:23.990Z,13.09
2022-10-14T01:15:23.976Z,13.13
2022-10-14T01:16:23.979Z,13.13
2022-10-14T01:17:23.999Z,13.13
2022-10-14T01:18:23.958Z,13.13
2022-10-14T01:19:23.951Z,13.13
2022-10-14T01:20:23.938Z,13.05
2022-10-14T01:21:23.938Z,13.09
2022-10-14T01:22:24.162Z,13.12
2022-10-14T01:23:23.931Z,13.09
2022-10-14T01:24:23.907Z,13.03
2022-10-14T01:25:23.904Z,13.11
2022-10-14T01:26:23.902Z,13.08
2022-10-14T01:27:23.945Z,13.08
2022-10-14T01:28:23.919Z,13.08
2022-10-14T01:29:23.873Z,13.15
2022-10-14T01:30:23.864Z,13.13
2022-10-14T01:31:23.928Z,13.09
2022-10-14T01:32:24.134Z,13.11
2022-10-14T01:33:23.836Z,13.08
2022-10-14T01:34:23.868Z,13.03
2022-10-14T01:35:23.820Z,13.05
2022-10-14T01:36:23.849Z,13.06
2022-10-14T01:37:23.799Z,13.03
2022-10-14T01:38:23.794Z,13.09
2022-10-14T01:39:23.808Z,13.16
2022-10-14T01:40:23.782Z,13.09
2022-10-14T01:41:23.763Z,13.03
2022-10-14T01:42:23.969Z,13.12
2022-10-14T01:43:23.754Z,13.11
2022-10-14T01:44:23.736Z,13.21
2022-10-14T01:45:23.736Z,13.12
2022-10-14T01:46:23.720Z,13.15
2022-10-14T01:47:23.747Z,13.24
2022-10-14T01:48:23.711Z,13.13
2022-10-14T01:49:23.700Z,13.13
2022-10-14T01:50:23.695Z,13.05
2022-10-14T01:51:23.680Z,13.09
2022-10-14T01:52:24.099Z,13.15
2022-10-14T01:53:23.658Z,13.16
2022-10-14T01:54:23.655Z,13.06
2022-10-14T01:55:23.661Z,13.12
2022-10-14T01:56:23.641Z,13.09
2022-10-14T01:57:23.696Z,13.00
2022-10-14T01:58:23.623Z,13.12
2022-10-14T01:59:23.612Z,13.15
2022-10-14T02:00:23.606Z,13.05
2022-10-14T02:01:23.689Z,13.05
2022-10-14T02:02:23.863Z,13.13
2022-10-14T02:03:23.577Z,12.98
2022-10-14T02:04:23.586Z,13.09
2022-10-14T02:05:23.565Z,13.03
2022-10-14T02:06:23.582Z,12.98
2022-10-14T02:07:23.585Z,13.06
2022-10-14T02:08:23.547Z,12.98
2022-10-14T02:09:23.536Z,13.03
2022-10-14T02:10:23.527Z,13.03
2022-10-14T02:11:23.512Z,12.88
2022-10-14T02:12:23.947Z,12.96
2022-10-14T02:13:23.500Z,12.85
2022-10-14T02:14:23.498Z,12.87
2022-10-14T02:15:23.478Z,12.91
2022-10-14T02:16:23.500Z,12.82
2022-10-14T02:17:23.532Z,12.76
2022-10-14T02:18:23.455Z,12.82
2022-10-14T02:19:23.504Z,12.76
2022-10-14T02:20:23.445Z,12.72
2022-10-14T02:21:23.438Z,12.71
2022-10-14T02:22:23.915Z,12.75
2022-10-14T02:23:23.419Z,12.75
2022-10-14T02:24:23.462Z,12.69
2022-10-14T02:25:23.398Z,12.76
2022-10-14T02:26:23.390Z,12.71
2022-10-14T02:27:23.696Z,12.72
2022-10-14T02:28:23.394Z,12.63
2022-10-14T02:29:23.541Z,12.60
2022-10-14T02:30:23.366Z,12.73
2022-10-14T02:31:23.351Z,12.71
2022-10-14T02:32:23.837Z,12.71
2022-10-14T02:33:23.329Z,12.69
2022-10-14T02:34:23.319Z,12.65
2022-10-14T02:35:23.314Z,12.72
2022-10-14T02:36:23.301Z,12.72
2022-10-14T02:37:23.326Z,12.72
2022-10-14T02:38:24.291Z,12.69
2022-10-14T02:39:23.276Z,12.65
2022-10-14T02:40:23.294Z,12.78
2022-10-14T02:41:23.258Z,12.76
2022-10-14T02:42:24.430Z,12.82
2022-10-14T02:43:23.252Z,12.72
2022-10-14T02:44:23.236Z,12.72
2022-10-14T02:45:23.241Z,12.71
2022-10-14T02:46:23.227Z,12.80
2022-10-14T02:47:23.243Z,12.76
2022-10-14T02:48:23.212Z,12.73
2022-10-14T02:49:23.231Z,12.80
2022-10-14T02:50:23.200Z,12.72
2022-10-14T02:51:23.181Z,12.73
2022-10-14T02:52:23.512Z,12.72
2022-10-14T02:53:23.175Z,12.80
2022-10-14T02:54:23.147Z,12.80
2022-10-14T02:55:24.152Z,12.88
2022-10-14T02:56:23.142Z,12.83
2022-10-14T02:57:23.165Z,12.82
2022-10-14T02:58:23.122Z,12.87
2022-10-14T02:59:23.120Z,12.87
2022-10-14T03:00:23.114Z,12.83
2022-10-14T03:01:23.159Z,12.88
2022-10-14T03:02:23.353Z,12.80
2022-10-14T03:03:23.085Z,12.90
2022-10-14T03:04:23.083Z,12.83
2022-10-14T03:05:23.068Z,12.85
2022-10-14T03:06:23.063Z,12.78
2022-10-14T03:07:23.077Z,12.83
2022-10-14T03:08:23.104Z,12.88
2022-10-14T03:09:23.038Z,12.83
2022-10-14T03:10:23.054Z,12.80
2022-10-14T03:11:23.017Z,12.79
2022-10-14T03:12:23.378Z,12.76
2022-10-14T03:13:23.009Z,12.85
2022-10-14T03:14:22.996Z,12.83
2022-10-14T03:15:22.983Z,12.83
2022-10-14T03:16:22.988Z,12.87
2022-10-14T03:17:23.015Z,12.83
2022-10-14T03:18:22.984Z,12.80
2022-10-14T03:19:22.961Z,12.87
2022-10-14T03:20:22.972Z,12.93
2022-10-14T03:21:22.964Z,12.88
2022-10-14T03:22:23.367Z,12.97
2022-10-14T03:23:22.915Z,12.94
2022-10-14T03:24:22.938Z,12.88
2022-10-14T03:25:22.908Z,12.94
2022-10-14T03:26:22.896Z,12.97
2022-10-14T03:27:22.923Z,12.91
2022-10-14T03:28:22.912Z,12.85
2022-10-14T03:29:22.877Z,12.91
2022-10-14T03:30:22.860Z,12.96
2022-10-14T03:31:22.855Z,12.91
2022-10-14T03:32:23.251Z,12.94
2022-10-14T03:33:25.914Z,12.96
2022-10-14T03:34:23.833Z,12.88
2022-10-14T03:35:22.819Z,13.01
2022-10-14T03:36:22.810Z,12.88
2022-10-14T03:37:22.881Z,12.94
2022-10-14T03:38:22.848Z,12.83
2022-10-14T03:39:22.784Z,12.90
2022-10-14T03:40:22.769Z,12.87
2022-10-14T03:41:23.761Z,12.91
2022-10-14T03:42:22.994Z,12.91
2022-10-14T03:43:22.751Z,12.88
2022-10-14T03:44:22.790Z,12.87
2022-10-14T03:45:22.733Z,12.93
2022-10-14T03:46:22.724Z,12.90
2022-10-14T03:47:23.173Z,12.88
2022-10-14T03:48:22.712Z,12.98
2022-10-14T03:49:22.697Z,12.94
2022-10-14T03:50:22.690Z,12.97
2022-10-14T03:51:22.689Z,13.03
2022-10-14T03:52:23.020Z,13.00
2022-10-14T03:53:22.668Z,12.98
2022-10-14T03:54:22.662Z,13.06
2022-10-14T03:55:22.654Z,13.01
2022-10-14T03:56:22.644Z,12.98
2022-10-14T03:57:22.636Z,12.97
2022-10-14T03:58:22.656Z,13.03
2022-10-14T03:59:22.625Z,12.98
2022-10-14T04:00:22.624Z,13.05
2022-10-14T04:01:22.660Z,13.05
2022-10-14T04:02:22.886Z,13.08
2022-10-14T04:03:22.613Z,13.12
2022-10-14T04:04:22.579Z,13.01
2022-10-14T04:05:22.577Z,13.05
2022-10-14T04:06:22.561Z,13.00
2022-10-14T04:07:22.569Z,13.01
2022-10-14T04:08:22.583Z,13.00
2022-10-14T04:09:22.549Z,13.08
2022-10-14T04:10:22.561Z,13.09
2022-10-14T04:11:22.528Z,13.06
2022-10-14T04:12:23.058Z,13.06
2022-10-14T04:13:22.547Z,13.08
2022-10-14T04:14:22.502Z,13.11
2022-10-14T04:15:22.492Z,13.12
2022-10-14T04:16:22.506Z,13.05
2022-10-14T04:17:22.482Z,13.16
2022-10-14T04:18:22.502Z,13.12
2022-10-14T04:19:22.465Z,13.13
2022-10-14T04:20:22.458Z,13.15
2022-10-14T04:21:22.447Z,13.06
2022-10-14T04:22:22.773Z,13.00
2022-10-14T04:23:22.455Z,13.08
2022-10-14T04:24:22.420Z,13.05
2022-10-14T04:25:22.415Z,13.09
2022-10-14T04:26:22.420Z,13.15
2022-10-14T04:27:22.485Z,13.11
2022-10-14T04:28:22.477Z,13.08
2022-10-14T04:29:22.380Z,13.15
2022-10-14T04:30:22.381Z,13.15
2022-10-14T04:31:22.366Z,13.12
2022-10-14T04:32:22.816Z,13.09
2022-10-14T04:33:22.388Z,13.05
2022-10-14T04:34:22.345Z,13.09
2022-10-14T04:35:22.338Z,13.11
2022-10-14T04:36:22.324Z,13.09
2022-10-14T04:37:22.315Z,13.15
2022-10-14T04:38:22.334Z,13.09
2022-10-14T04:39:22.305Z,13.09
2022-10-14T04:40:22.288Z,13.09
2022-10-14T04:41:22.286Z,13.12
2022-10-14T04:42:22.538Z,13.13
2022-10-14T04:43:22.295Z,13.21
2022-10-14T04:44:22.261Z,13.11
2022-10-14T04:45:22.310Z,13.22
2022-10-14T04:46:22.258Z,13.22
2022-10-14T04:47:22.234Z,13.00
2022-10-14T04:48:22.262Z,13.27
2022-10-14T04:49:22.221Z,13.21
2022-10-14T04:50:22.212Z,13.13
2022-10-14T04:51:22.201Z,13.11
2022-10-14T04:52:22.583Z,13.13
2022-10-14T04:53:22.596Z,13.15
2022-10-14T04:54:23.183Z,13.12
2022-10-14T04:55:22.179Z,13.12
2022-10-14T04:56:22.169Z,13.21
2022-10-14T04:57:22.186Z,13.21
2022-10-14T04:58:22.173Z,13.16
2022-10-14T04:59:22.136Z,13.13
2022-10-14T05:00:22.145Z,13.12
2022-10-14T05:01:22.226Z,13.15
2022-10-14T05:02:22.385Z,13.18
2022-10-14T05:03:23.139Z,13.01
2022-10-14T05:04:22.102Z,13.12
2022-10-14T05:05:22.092Z,13.12
2022-10-14T05:06:22.080Z,13.11
2022-10-14T05:07:22.070Z,13.11
2022-10-14T05:08:22.088Z,13.08
2022-10-14T05:09:22.051Z,13.09
2022-10-14T05:10:22.041Z,13.21
2022-10-14T05:11:22.031Z,13.08
2022-10-14T05:12:22.327Z,13.08
2022-10-14T05:13:22.064Z,13.09
2022-10-14T05:14:22.005Z,13.12
2022-10-14T05:15:22.006Z,13.09
2022-10-14T05:16:21.997Z,13.15
2022-10-14T05:17:21.999Z,13.13
2022-10-14T05:18:22.014Z,13.08
2022-10-14T05:19:21.980Z,13.03
2022-10-14T05:20:21.959Z,13.08
2022-10-14T05:21:21.962Z,13.13
2022-10-14T05:22:22.136Z,13.11
2022-10-14T05:23:21.983Z,13.18
2022-10-14T05:24:21.943Z,13.08
2022-10-14T05:25:21.930Z,13.19
2022-10-14T05:26:21.920Z,13.18
2022-10-14T05:27:21.913Z,13.03
2022-10-14T05:28:21.975Z,13.05
2022-10-14T05:29:21.897Z,12.91
2022-10-14T05:30:21.884Z,12.94
2022-10-14T05:31:21.901Z,12.96
2022-10-14T05:32:22.093Z,12.97
2022-10-14T05:33:21.903Z,12.88
2022-10-14T05:34:21.867Z,12.90
2022-10-14T05:35:39.856Z,12.91
2022-10-14T05:36:23.848Z,12.97
2022-10-14T05:37:21.841Z,12.96
2022-10-14T05:38:21.861Z,12.91
2022-10-14T05:39:21.821Z,12.94
2022-10-14T05:40:21.810Z,12.80
2022-10-14T05:41:21.802Z,12.85
2022-10-14T05:42:22.168Z,12.91
2022-10-14T05:43:21.827Z,12.90
2022-10-14T05:44:21.777Z,13.01
2022-10-14T05:45:21.771Z,12.97
2022-10-14T05:46:21.756Z,12.94
2022-10-14T05:47:21.754Z,12.94
2022-10-14T05:48:21.770Z,13.03
2022-10-14T05:49:21.746Z,13.05
2022-10-14T05:50:21.725Z,12.98
2022-10-14T05:51:21.717Z,13.03
2022-10-14T05:52:21.827Z,13.12
2022-10-14T05:53:21.734Z,13.03
2022-10-14T05:54:21.694Z,13.12
2022-10-14T05:55:21.687Z,13.13
2022-10-14T05:56:22.679Z,13.11
2022-10-14T05:57:21.668Z,13.06
2022-10-14T05:58:21.695Z,13.13
2022-10-14T05:59:21.661Z,13.08
2022-10-14T06:00:25.595Z,13.08
2022-10-14T06:01:22.636Z,13.12
2022-10-14T06:02:21.906Z,13.08
2022-10-14T06:03:21.715Z,13.13
2022-10-14T06:04:21.607Z,13.12
2022-10-14T06:05:21.604Z,13.12
2022-10-14T06:06:25.293Z,13.13
2022-10-14T06:07:23.581Z,13.09
2022-10-14T06:08:21.581Z,13.15
2022-10-14T06:09:21.605Z,13.12
2022-10-14T06:10:21.552Z,13.12
2022-10-14T06:11:22.552Z,13.15
2022-10-14T06:12:21.824Z,13.12
2022-10-14T06:13:21.539Z,13.13
2022-10-14T06:14:21.555Z,13.16
2022-10-14T06:15:21.521Z,13.27
2022-10-14T06:16:21.525Z,13.22
2022-10-14T06:17:21.498Z,13.24
2022-10-14T06:18:21.493Z,13.18
2022-10-14T06:19:21.521Z,13.27
2022-10-14T06:20:21.490Z,13.09
2022-10-14T06:21:21.483Z,13.16
2022-10-14T06:22:21.597Z,13.29
2022-10-14T06:23:21.453Z,13.26
2022-10-14T06:24:21.484Z,13.21
2022-10-14T06:25:21.435Z,13.09
2022-10-14T06:26:21.425Z,13.19
2022-10-14T06:27:21.424Z,13.18
2022-10-14T06:28:21.487Z,13.27
2022-10-14T06:29:21.439Z,13.27
2022-10-14T06:30:21.397Z,13.22
2022-10-14T06:31:21.381Z,13.39
2022-10-14T06:32:21.556Z,13.31
2022-10-14T06:33:21.374Z,13.35
2022-10-14T06:34:21.386Z,13.37
2022-10-14T06:35:21.348Z,13.46
2022-10-14T06:36:21.342Z,13.47
2022-10-14T06:37:21.336Z,13.52
2022-10-14T06:38:21.328Z,13.56
2022-10-14T06:39:21.361Z,13.65
2022-10-14T06:40:21.312Z,13.55
2022-10-14T06:41:21.301Z,13.56
2022-10-14T06:42:21.300Z,13.56
2022-10-14T06:43:21.310Z,13.59
2022-10-14T06:44:21.305Z,13.70
2022-10-14T06:45:21.266Z,13.77
2022-10-14T06:46:21.255Z,13.72
2022-10-14T06:47:21.250Z,13.75
2022-10-14T06:48:21.266Z,13.77
2022-10-14T06:49:21.258Z,13.82
2022-10-14T06:50:21.230Z,13.86
2022-10-14T06:51:21.223Z,13.90
2022-10-14T06:52:21.655Z,13.78
2022-10-14T06:53:21.220Z,13.85
2022-10-14T06:54:21.230Z,13.77
2022-10-14T06:55:21.182Z,13.71
2022-10-14T06:56:21.184Z,13.80
2022-10-14T06:57:21.234Z,13.88
2022-10-14T06:58:21.293Z,13.77
2022-10-14T06:59:21.178Z,13.77
2022-10-14T07:00:21.144Z,13.83
2022-10-14T07:01:21.175Z,13.74
2022-10-14T07:02:21.501Z,13.86
2022-10-14T07:03:21.123Z,13.77
2022-10-14T07:04:21.142Z,13.83
2022-10-14T07:05:21.106Z,13.88
2022-10-14T07:06:21.095Z,13.93
2022-10-14T07:07:21.090Z,13.89
2022-10-14T07:08:21.077Z,14.00
2022-10-14T07:09:21.099Z,13.92
2022-10-14T07:10:21.068Z,14.04
2022-10-14T07:11:21.047Z,14.07
2022-10-14T07:12:21.243Z,14.01
2022-10-14T07:13:21.041Z,14.05
2022-10-14T07:14:21.057Z,14.00
2022-10-14T07:15:21.022Z,13.95
2022-10-14T07:16:21.015Z,13.90
2022-10-14T07:17:21.292Z,14.03
2022-10-14T07:18:21.005Z,13.97
2022-10-14T07:19:21.026Z,14.04
2022-10-14T07:20:20.995Z,14.05
2022-10-14T07:21:20.981Z,14.07
2022-10-14T07:22:21.272Z,14.11
2022-10-14T07:23:20.954Z,14.08
2022-10-14T07:24:20.997Z,14.11
2022-10-14T07:25:20.946Z,14.14
2022-10-14T07:26:20.933Z,14.20
2022-10-14T07:27:21.191Z,14.11
2022-10-14T07:28:20.950Z,14.23
2022-10-14T07:29:20.906Z,14.25
2022-10-14T07:30:20.930Z,14.19
2022-10-14T07:31:20.904Z,14.20
2022-10-14T07:32:20.886Z,14.29
2022-10-14T07:33:20.879Z,14.20
2022-10-14T07:34:20.867Z,14.28
2022-10-14T07:35:20.893Z,14.29
2022-10-14T07:36:22.576Z,14.22
2022-10-14T07:37:21.081Z,14.36
2022-10-14T07:38:20.842Z,14.28
2022-10-14T07:39:20.830Z,14.25
2022-10-14T07:40:20.849Z,14.23
2022-10-14T07:41:21.813Z,14.32
2022-10-14T07:43:21.794Z,14.14
2022-10-14T07:44:23.571Z,14.15
2022-10-14T07:45:22.805Z,14.25
2022-10-14T07:46:20.767Z,14.25
2022-10-14T07:47:20.981Z,14.18
2022-10-14T07:48:27.356Z,14.28
2022-10-14T07:49:21.743Z,14.25
2022-10-14T07:50:20.761Z,14.29
2022-10-14T07:51:20.735Z,14.36
2022-10-14T07:52:20.720Z,14.45
2022-10-14T07:53:20.724Z,14.48
2022-10-14T07:54:20.707Z,14.44
2022-10-14T07:55:20.734Z,14.41
2022-10-14T07:56:20.699Z,14.40
2022-10-14T07:57:21.207Z,14.40
2022-10-14T07:58:20.677Z,14.33
2022-10-14T07:59:20.661Z,14.37
2022-10-14T08:00:20.711Z,14.44
2022-10-14T08:01:20.716Z,14.58
2022-10-14T08:02:20.646Z,14.51
2022-10-14T08:03:20.642Z,14.45
2022-10-14T08:04:20.618Z,14.56
2022-10-14T08:05:38.566Z,14.51
2022-10-14T08:06:22.615Z,14.47
2022-10-14T08:07:20.804Z,14.51
2022-10-14T08:08:20.603Z,14.68
2022-10-14T08:09:20.669Z,14.61
2022-10-14T08:10:20.606Z,14.59
2022-10-14T08:11:20.603Z,14.63
2022-10-14T08:12:20.759Z,14.59
2022-10-14T08:13:20.560Z,14.62
2022-10-14T08:14:20.553Z,14.58
2022-10-14T08:15:20.567Z,14.58
2022-10-14T08:16:20.533Z,14.70
2022-10-14T08:17:20.524Z,14.70
2022-10-14T08:18:20.524Z,14.77
2022-10-14T08:19:20.505Z,14.73
2022-10-14T08:21:20.503Z,14.91
2022-10-14T08:22:20.764Z,14.85
2022-10-14T08:23:20.470Z,15.03
2022-10-14T08:24:20.467Z,15.00
2022-10-14T08:25:20.497Z,15.00
2022-10-14T08:26:20.455Z,15.04
2022-10-14T08:27:20.437Z,15.24
2022-10-14T08:28:20.472Z,15.17
2022-10-14T08:29:20.425Z,15.17
2022-10-14T08:30:20.472Z,15.33
2022-10-14T08:31:20.427Z,15.50
2022-10-14T08:32:20.771Z,15.54
2022-10-14T08:33:20.392Z,15.58
2022-10-14T08:34:20.385Z,15.61
2022-10-14T08:35:20.430Z,15.73
2022-10-14T08:36:20.400Z,15.73
2022-10-14T08:37:20.359Z,15.64
2022-10-14T08:38:20.361Z,15.60
2022-10-14T08:39:21.441Z,15.39
2022-10-14T08:40:20.816Z,15.30
2022-10-14T08:41:20.351Z,15.37
2022-10-14T08:42:20.789Z,15.25
2022-10-14T08:43:20.313Z,15.28
2022-10-14T08:44:20.307Z,15.43
2022-10-14T08:45:20.294Z,15.36
2022-10-14T08:46:20.325Z,15.40
2022-10-14T08:47:20.285Z,15.37
2022-10-14T08:48:20.283Z,15.37
2022-10-14T08:49:20.262Z,15.42
2022-10-14T08:50:20.281Z,15.50
2022-10-14T08:51:20.294Z,15.50
2022-10-14T08:52:20.577Z,15.55
2022-10-14T08:53:20.237Z,15.58
2022-10-14T08:54:20.220Z,15.46
2022-10-14T08:55:20.214Z,15.54
2022-10-14T08:56:20.235Z,15.44
2022-10-14T08:57:20.196Z,15.55
2022-10-14T08:58:20.297Z,15.60
2022-10-14T08:59:20.188Z,15.69
2022-10-14T09:00:20.326Z,15.65
2022-10-14T09:01:20.188Z,15.69
2022-10-14T09:02:20.358Z,15.76
2022-10-14T09:03:20.152Z,15.76
2022-10-14T09:04:20.235Z,15.82
2022-10-14T09:05:20.130Z,15.76
2022-10-14T09:06:20.155Z,15.68
2022-10-14T09:07:20.113Z,15.73
2022-10-14T09:08:20.107Z,15.75
2022-10-14T09:09:20.096Z,15.73
2022-10-14T09:10:20.145Z,15.73
2022-10-14T09:11:20.109Z,15.70
2022-10-14T09:12:20.583Z,15.70
2022-10-14T09:13:20.072Z,15.70
2022-10-14T09:14:20.070Z,15.60
2022-10-14T09:15:20.057Z,15.58
2022-10-14T09:16:20.071Z,15.48
2022-10-14T09:17:20.037Z,15.51
2022-10-14T09:18:20.029Z,15.62
2022-10-14T09:19:20.024Z,15.61
2022-10-14T09:20:20.042Z,15.82
2022-10-14T09:21:27.882Z,15.69
2022-10-14T09:22:22.369Z,15.58
2022-10-14T09:23:19.983Z,15.48
2022-10-14T09:24:19.974Z,15.48
2022-10-14T09:25:19.971Z,15.51
2022-10-14T09:26:19.995Z,15.57
2022-10-14T09:27:20.202Z,15.52
2022-10-14T09:28:19.977Z,15.48
2022-10-14T09:29:19.934Z,15.32
2022-10-14T09:30:20.022Z,15.46
2022-10-14T09:31:19.945Z,15.57
2022-10-14T09:32:20.158Z,15.65
2022-10-14T09:33:19.905Z,15.69
2022-10-14T09:34:20.405Z,15.76
2022-10-14T09:35:19.898Z,15.73
2022-10-14T09:36:19.879Z,15.76
2022-10-14T09:37:20.096Z,15.73
2022-10-14T09:38:19.887Z,15.90
2022-10-14T09:39:19.860Z,15.82
2022-10-14T09:40:19.855Z,15.98
2022-10-14T09:41:19.845Z,15.97
2022-10-14T09:42:19.865Z,16.05
2022-10-14T09:43:19.841Z,16.01
2022-10-14T09:44:19.822Z,16.02
2022-10-14T09:45:19.817Z,15.98
2022-10-14T09:46:19.803Z,16.09
2022-10-14T09:47:19.967Z,16.02
2022-10-14T09:48:19.788Z,16.12
2022-10-14T09:49:19.784Z,16.10
2022-10-14T09:50:19.774Z,16.05
2022-10-14T09:51:19.772Z,15.94
2022-10-14T09:52:19.801Z,16.02
2022-10-14T09:53:19.753Z,16.02
2022-10-14T09:54:19.739Z,16.01
2022-10-14T09:55:19.731Z,15.98
2022-10-14T09:56:20.817Z,15.95
2022-10-14T09:57:19.922Z,16.05
2022-10-14T09:58:19.703Z,16.09
2022-10-14T09:59:19.707Z,16.12
2022-10-14T10:00:19.722Z,16.13
2022-10-14T10:01:19.681Z,16.09
2022-10-14T10:02:19.745Z,16.21
2022-10-14T10:03:19.667Z,16.28
2022-10-14T10:04:19.678Z,16.25
2022-10-14T10:05:19.653Z,16.32
2022-10-14T10:06:19.635Z,16.54
2022-10-14T10:07:20.027Z,16.51
2022-10-14T10:08:19.629Z,16.51
2022-10-14T10:09:19.618Z,16.68
2022-10-14T10:10:19.610Z,16.74
2022-10-14T10:11:19.598Z,16.83
2022-10-14T10:12:19.624Z,17.04
2022-10-14T10:13:19.585Z,17.04
2022-10-14T10:14:19.576Z,17.02
2022-10-14T10:15:19.569Z,17.02
2022-10-14T10:16:19.595Z,16.86
2022-10-14T10:17:19.761Z,16.86
2022-10-14T10:18:19.548Z,16.79
2022-10-14T10:19:19.534Z,16.82
2022-10-14T10:20:19.530Z,16.71
2022-10-14T10:21:19.511Z,16.66
2022-10-14T10:23:20.505Z,16.57
2022-10-14T10:24:19.486Z,16.62
2022-10-14T10:25:19.480Z,16.57
2022-10-14T10:26:19.475Z,16.47
2022-10-14T10:27:19.822Z,16.39
2022-10-14T10:28:19.485Z,16.43
2022-10-14T10:29:19.458Z,16.41
2022-10-14T10:30:19.456Z,16.36
2022-10-14T10:31:19.588Z,16.41
2022-10-14T10:32:19.695Z,16.35
2022-10-14T10:33:19.420Z,16.41
2022-10-14T10:34:19.400Z,16.53
2022-10-14T10:35:19.399Z,16.56
2022-10-14T10:37:20.856Z,16.68
2022-10-14T10:38:19.370Z,16.68
2022-10-14T10:39:19.371Z,16.69
2022-10-14T10:40:19.359Z,16.65
2022-10-14T10:41:19.353Z,16.72
2022-10-14T10:42:19.525Z,16.74
2022-10-14T10:43:19.961Z,16.82
2022-10-14T10:44:19.331Z,16.87
2022-10-14T10:45:19.315Z,16.91
2022-10-14T10:46:20.309Z,16.80
2022-10-14T10:47:19.305Z,16.82
2022-10-14T10:48:19.327Z,16.75
2022-10-14T10:49:19.285Z,16.68
2022-10-14T10:50:19.287Z,16.72
2022-10-14T10:51:19.269Z,16.69
2022-10-14T10:52:21.430Z,16.74
2022-10-14T10:53:19.283Z,16.79
2022-10-14T10:54:19.247Z,16.91
2022-10-14T10:55:19.233Z,16.90
2022-10-14T10:56:19.235Z,16.91
2022-10-14T10:57:19.294Z,16.96
2022-10-14T10:58:19.238Z,16.98
2022-10-14T11:00:19.239Z,16.89
2022-10-14T11:01:19.269Z,16.80
2022-10-14T11:02:19.423Z,16.72
2022-10-14T11:03:19.196Z,16.82
2022-10-14T11:04:19.163Z,16.84
2022-10-14T11:05:19.156Z,16.75
2022-10-14T11:06:19.141Z,16.74
2022-10-14T11:07:21.022Z,16.82
2022-10-14T11:08:19.156Z,16.89
2022-10-14T11:09:19.115Z,17.02
2022-10-14T11:10:19.110Z,17.09
2022-10-14T11:11:19.099Z,17.16
2022-10-14T11:12:19.260Z,17.17
2022-10-14T11:13:19.119Z,17.17
2022-10-14T11:14:19.096Z,17.19
2022-10-14T11:16:20.057Z,17.02
2022-10-14T11:17:19.297Z,17.04
2022-10-14T11:18:19.076Z,17.14
2022-10-14T11:19:19.034Z,16.99
2022-10-14T11:20:19.031Z,16.94
2022-10-14T11:21:19.022Z,16.93
2022-10-14T11:22:19.209Z,16.90
2022-10-14T11:23:19.033Z,16.84
2022-10-14T11:24:19.040Z,16.80
2022-10-14T11:25:18.985Z,16.74
2022-10-14T11:26:18.970Z,16.84
2022-10-14T11:27:23.914Z,16.86
2022-10-14T11:28:19.008Z,16.93
2022-10-14T11:29:18.948Z,17.01
2022-10-14T11:30:18.938Z,17.09
2022-10-14T11:31:18.939Z,17.09
2022-10-14T11:32:18.927Z,17.14
2022-10-14T11:33:18.951Z,17.23
2022-10-14T11:34:18.913Z,17.17
2022-10-14T11:35:18.904Z,17.23
2022-10-14T11:36:18.897Z,17.24
2022-10-14T11:37:19.008Z,17.35
2022-10-14T11:38:18.915Z,17.49
2022-10-14T11:39:18.859Z,17.53
2022-10-14T11:40:18.859Z,17.82
2022-10-14T11:41:18.856Z,17.91
2022-10-14T11:42:18.849Z,18.04
2022-10-14T11:43:18.863Z,18.12
2022-10-14T11:44:18.831Z,18.33
2022-10-14T11:45:21.256Z,18.34
2022-10-14T11:46:18.808Z,18.18
2022-10-14T11:47:18.934Z,17.94
2022-10-14T11:48:18.832Z,17.86
2022-10-14T11:49:18.791Z,17.78
2022-10-14T11:50:18.772Z,17.64
2022-10-14T11:51:18.775Z,17.71
2022-10-14T11:52:18.802Z,17.67
2022-10-14T11:53:18.796Z,17.65
2022-10-14T11:54:18.756Z,17.59
2022-10-14T11:55:18.743Z,17.42
2022-10-14T11:56:18.732Z,17.35
2022-10-14T11:57:18.723Z,17.22
2022-10-14T11:58:18.746Z,17.12
2022-10-14T11:59:18.738Z,17.08
2022-10-14T12:00:18.732Z,16.90
2022-10-14T12:01:18.686Z,16.87
2022-10-14T12:02:18.798Z,16.84
2022-10-14T12:03:18.675Z,16.82
2022-10-14T12:04:18.696Z,16.80
2022-10-14T12:05:18.661Z,16.82
2022-10-14T12:06:18.647Z,16.74
2022-10-14T12:07:18.641Z,16.91
2022-10-14T12:08:18.629Z,16.83
2022-10-14T12:09:18.645Z,16.90
2022-10-14T12:10:18.617Z,16.87
2022-10-14T12:11:18.613Z,16.96
2022-10-14T12:12:18.596Z,16.99
2022-10-14T12:13:18.622Z,17.06
2022-10-14T12:14:18.587Z,17.08
2022-10-14T12:15:18.617Z,17.04
2022-10-14T12:16:18.568Z,17.06
2022-10-14T12:17:18.988Z,17.06
2022-10-14T12:18:18.580Z,17.04
2022-10-14T12:19:18.539Z,17.01
2022-10-14T12:20:18.552Z,17.02
2022-10-14T12:21:18.519Z,16.99
2022-10-14T12:22:18.516Z,16.84
2022-10-14T12:23:18.534Z,16.87
2022-10-14T12:24:18.505Z,16.99
2022-10-14T12:25:18.491Z,16.98
2022-10-14T12:26:18.489Z,17.02
2022-10-14T12:27:18.498Z,17.11
2022-10-14T12:28:18.522Z,17.26
2022-10-14T12:29:18.455Z,17.24
2022-10-14T12:30:18.456Z,17.27
2022-10-14T12:31:18.445Z,17.29
2022-10-14T12:32:18.431Z,17.30
2022-10-14T12:33:22.525Z,17.33
2022-10-14T12:34:19.426Z,17.27
2022-10-14T12:35:18.434Z,17.48
2022-10-14T12:36:18.409Z,17.65
2022-10-14T12:37:18.404Z,17.95
2022-10-14T12:38:18.499Z,18.28
2022-10-14T12:39:18.381Z,18.59
2022-10-14T12:40:18.377Z,18.95
2022-10-14T12:41:18.376Z,19.16
2022-10-14T12:42:18.369Z,19.30
2022-10-14T12:43:18.388Z,19.41
2022-10-14T12:44:18.334Z,19.70
2022-10-14T12:45:18.333Z,19.60
2022-10-14T12:46:18.325Z,19.51
2022-10-14T12:47:18.309Z,19.48
2022-10-14T12:48:18.340Z,19.44
2022-10-14T12:49:18.300Z,19.24
2022-10-14T12:50:18.285Z,19.23
2022-10-14T12:51:18.270Z,19.23
2022-10-14T12:52:18.271Z,19.05
2022-10-14T12:53:18.261Z,18.89
2022-10-14T12:54:18.292Z,18.93
2022-10-14T12:55:18.249Z,18.92
2022-10-14T12:56:18.235Z,19.24
2022-10-14T12:57:18.314Z,19.51
2022-10-14T12:58:18.215Z,19.49